METAR LKPR 052000Z 24016KT 9999 FEW016 07/05 Q1006 NOSIG RMK REG QNH 1003=

Srážky, Oblačnost (nizká/střední) (+3h)

Rychlost větru (2000ft/943hPa)

Čidlo vnitřní - NodeMCU1

21°C
 
81%
 
21°C
 
81%
 
21°C
 
81%
 
21°C
 
81%
 
21°C
 
81%
 
21°C
 
81%
 
21°C
 
81%
 
21°C
 
81%
 
19°C
 
80%
 
21°C
 
82%
 
21°C
 
82%
 
21°C
 
81%
 
21°C
 
82%
 
21°C
 
82%
 
21°C
 
82%
 
21°C
 
82%
 
21°C
 
82%
 
21°C
 
82%
 
21°C
 
82%
 
21°C
 
82%
 

Čidlo Avia - NodeMCU2

0°C
 
0
hPa
 
0°C
 
0
hPa
 
0°C
 
0
hPa
 
0°C
 
0
hPa
 
0°C
 
0
hPa
 
0°C
 
0
hPa
 
0°C
 
0
hPa
 
0°C
 
0
hPa
 
0°C
 
0
hPa
 
0°C
 
0
hPa
 
0°C
 
0
hPa
 
0°C
 
0
hPa
 
0°C
 
0
hPa
 
0°C
 
0
hPa
 
0°C
 
0
hPa
 
0°C
 
0
hPa
 
0°C
 
0
hPa
 
0°C
 
0
hPa
 
0°C
 
0
hPa
 
0°C
 
0
hPa
 
0°C
 
0
hPa
 
0°C
 
0
hPa